Time,TemperatureF,DewpointF,PressureIn,WindDirection,WindDirectionDegrees,WindSpeedMPH,WindSpeedGustMPH,Humidity,HourlyPrecipIn,Conditions,Clouds,dailyrainin,SolarRadiationWatts/m^2,SoftwareType,DateUTC
2013-04-29 00:03:00,56.0,56.0,-100.00,SE,128,1.0,6.0,100,0.00,,,2.33,0.000000,,2013-04-29 04:03:00,
2013-04-29 00:13:00,56.0,56.0,-100.00,SE,128,1.0,6.0,100,0.00,,,2.33,0.000000,,2013-04-29 04:13:00,
2013-04-29 00:23:00,56.0,56.0,-100.00,SE,128,1.0,6.0,100,0.00,,,2.33,0.000000,,2013-04-29 04:23:00,
2013-04-29 00:31:00,56.0,56.0,-100.00,NNE,18,0.0,3.0,100,0.05,,,2.38,0.000000,,2013-04-29 04:31:00,
2013-04-29 00:52:00,56.0,56.0,-100.00,NNE,18,0.0,3.0,100,0.05,,,2.38,0.000000,,2013-04-29 04:52:00,
2013-04-29 01:02:00,56.0,56.0,-100.00,NNE,18,0.0,3.0,100,0.05,,,2.38,0.000000,,2013-04-29 05:02:00,
2013-04-29 01:12:00,56.0,56.0,-100.00,NNE,18,0.0,3.0,100,0.05,,,2.38,0.000000,,2013-04-29 05:12:00,
2013-04-29 01:22:00,56.0,56.0,-100.00,NNE,18,0.0,3.0,100,0.05,,,2.38,0.000000,,2013-04-29 05:22:00,
2013-04-29 01:31:00,56.0,56.0,-100.00,West,268,0.0,0.0,100,0.03,,,2.41,0.000000,,2013-04-29 05:31:00,
2013-04-29 01:52:00,56.0,56.0,-100.00,West,268,0.0,0.0,100,0.03,,,2.41,0.000000,,2013-04-29 05:52:00,
2013-04-29 02:02:00,56.0,56.0,-100.00,West,268,0.0,0.0,100,0.03,,,2.41,0.000000,,2013-04-29 06:02:00,
2013-04-29 02:12:00,56.0,56.0,-100.00,West,268,0.0,0.0,100,0.03,,,2.41,0.000000,,2013-04-29 06:12:00,
2013-04-29 02:22:00,56.0,56.0,-100.00,West,268,0.0,0.0,100,0.03,,,2.41,0.000000,,2013-04-29 06:22:00,
2013-04-29 02:31:00,56.0,56.0,-100.00,SSW,193,0.0,0.0,100,0.01,,,2.42,0.000000,,2013-04-29 06:31:00,
2013-04-29 02:52:00,56.0,56.0,-100.00,SSW,193,0.0,0.0,100,0.01,,,2.42,0.000000,,2013-04-29 06:52:00,
2013-04-29 03:02:00,56.0,56.0,-100.00,SSW,193,0.0,0.0,100,0.01,,,2.42,0.000000,,2013-04-29 07:02:00,
2013-04-29 03:11:00,56.0,56.0,-100.00,SSW,193,0.0,0.0,100,0.01,,,2.42,0.000000,,2013-04-29 07:11:00,
2013-04-29 03:22:00,56.0,56.0,-100.00,SSW,193,0.0,0.0,100,0.01,,,2.42,0.000000,,2013-04-29 07:22:00,
2013-04-29 03:31:00,56.0,56.0,-100.00,NNE,13,0.0,0.0,100,0.03,,,2.45,0.000000,,2013-04-29 07:31:00,
2013-04-29 03:52:00,56.0,56.0,-100.00,NNE,13,0.0,0.0,100,0.03,,,2.45,0.000000,,2013-04-29 07:52:00,
2013-04-29 04:03:00,56.0,56.0,-100.00,NNE,13,0.0,0.0,100,0.03,,,2.45,0.000000,,2013-04-29 08:03:00,
2013-04-29 04:11:00,56.0,56.0,-100.00,NNE,13,0.0,0.0,100,0.03,,,2.45,0.000000,,2013-04-29 08:11:00,
2013-04-29 04:22:00,56.0,56.0,-100.00,NNE,13,0.0,0.0,100,0.03,,,2.45,0.000000,,2013-04-29 08:22:00,
2013-04-29 04:31:00,56.0,56.0,-100.00,East,92,0.0,0.0,100,0.01,,,2.46,0.000000,,2013-04-29 08:31:00,
2013-04-29 04:52:00,56.0,56.0,-100.00,East,92,0.0,0.0,100,0.01,,,2.46,0.000000,,2013-04-29 08:52:00,
2013-04-29 05:01:00,56.0,56.0,-100.00,East,92,0.0,0.0,100,0.01,,,2.46,0.000000,,2013-04-29 09:01:00,
2013-04-29 05:12:00,56.0,56.0,-100.00,East,92,0.0,0.0,100,0.01,,,2.46,0.000000,,2013-04-29 09:12:00,
2013-04-29 05:22:00,56.0,56.0,-100.00,East,92,0.0,0.0,100,0.01,,,2.46,0.000000,,2013-04-29 09:22:00,
2013-04-29 05:31:00,56.0,56.0,-100.00,NNW,342,0.0,0.0,100,0.00,,,2.45,0.000000,,2013-04-29 09:31:00,
2013-04-29 05:53:00,56.0,56.0,-100.00,NNW,342,0.0,0.0,100,0.00,,,2.45,0.000000,,2013-04-29 09:53:00,
2013-04-29 06:03:00,56.0,56.0,-100.00,NNW,342,0.0,0.0,100,0.00,,,2.45,0.000000,,2013-04-29 10:03:00,
2013-04-29 06:12:00,56.0,56.0,-100.00,NNW,342,0.0,0.0,100,0.00,,,2.45,0.000000,,2013-04-29 10:12:00,
2013-04-29 06:23:00,56.0,56.0,-100.00,NNW,342,0.0,0.0,100,0.00,,,2.45,0.000000,,2013-04-29 10:23:00,
2013-04-29 06:31:00,56.0,56.0,-100.00,North,356,0.0,0.0,100,0.00,,,2.43,0.000000,,2013-04-29 10:31:00,
2013-04-29 06:52:00,56.0,56.0,-100.00,North,356,0.0,0.0,100,0.00,,,2.43,0.000000,,2013-04-29 10:52:00,
2013-04-29 07:03:00,56.0,56.0,-100.00,North,356,0.0,0.0,100,0.00,,,2.43,0.000000,,2013-04-29 11:03:00,
2013-04-29 07:12:00,56.0,56.0,-100.00,North,356,0.0,0.0,100,0.00,,,2.43,0.000000,,2013-04-29 11:12:00,
2013-04-29 07:22:00,56.0,56.0,-100.00,North,356,0.0,0.0,100,0.00,,,2.43,0.000000,,2013-04-29 11:22:00,
2013-04-29 07:31:00,56.0,56.0,-100.00,NW,323,0.0,0.0,100,0.00,,,2.43,4.000000,,2013-04-29 11:31:00,
2013-04-29 07:52:00,56.0,56.0,-100.00,NW,323,0.0,0.0,100,0.00,,,2.43,4.000000,,2013-04-29 11:52:00,
2013-04-29 08:01:00,56.0,56.0,-100.00,NW,323,0.0,0.0,100,0.00,,,2.43,4.000000,,2013-04-29 12:01:00,
2013-04-29 08:12:00,56.0,56.0,-100.00,NW,323,0.0,0.0,100,0.00,,,2.43,4.000000,,2013-04-29 12:12:00,
2013-04-29 08:22:00,56.0,56.0,-100.00,NW,323,0.0,0.0,100,0.00,,,2.43,4.000000,,2013-04-29 12:22:00,
2013-04-29 08:31:00,57.0,57.0,-100.00,NE,49,0.0,4.0,100,0.00,,,2.40,39.000000,,2013-04-29 12:31:00,
2013-04-29 08:52:00,57.0,57.0,-100.00,NE,49,0.0,4.0,100,0.00,,,2.40,39.000000,,2013-04-29 12:52:00,
2013-04-29 09:01:00,57.0,57.0,-100.00,NE,49,0.0,4.0,100,0.00,,,2.40,39.000000,,2013-04-29 13:01:00,
2013-04-29 09:11:00,57.0,57.0,-100.00,NE,49,0.0,4.0,100,0.00,,,2.40,39.000000,,2013-04-29 13:11:00,
2013-04-29 09:21:00,57.0,57.0,-100.00,NE,49,0.0,4.0,100,0.00,,,2.40,39.000000,,2013-04-29 13:21:00,
2013-04-29 09:31:00,60.0,60.0,-100.00,East,89,0.0,2.0,99,0.00,,,2.39,181.000000,,2013-04-29 13:31:00,
2013-04-29 09:52:00,60.0,60.0,-100.00,East,89,0.0,2.0,99,0.00,,,2.39,181.000000,,2013-04-29 13:52:00,
2013-04-29 10:02:00,60.0,60.0,-100.00,East,89,0.0,2.0,99,0.00,,,2.39,181.000000,,2013-04-29 14:02:00,
2013-04-29 10:12:00,60.0,60.0,-100.00,East,89,0.0,2.0,99,0.00,,,2.39,181.000000,,2013-04-29 14:12:00,
2013-04-29 10:21:00,60.0,60.0,-100.00,East,89,0.0,2.0,99,0.00,,,2.39,181.000000,,2013-04-29 14:21:00,
2013-04-29 10:31:00,62.0,60.0,-100.00,SSE,164,0.0,4.0,93,0.00,,,2.36,237.000000,,2013-04-29 14:31:00,
2013-04-29 10:52:00,62.0,60.0,-100.00,SSE,164,0.0,4.0,93,0.00,,,2.36,237.000000,,2013-04-29 14:52:00,
2013-04-29 11:01:00,62.0,60.0,-100.00,SSE,164,0.0,4.0,93,0.00,,,2.36,237.000000,,2013-04-29 15:01:00,
2013-04-29 11:12:00,62.0,60.0,-100.00,SSE,164,0.0,4.0,93,0.00,,,2.36,237.000000,,2013-04-29 15:12:00,
2013-04-29 11:22:00,62.0,60.0,-100.00,SSE,164,0.0,4.0,93,0.00,,,2.36,237.000000,,2013-04-29 15:22:00,
2013-04-29 11:31:00,65.0,60.0,-100.00,SSE,157,0.0,3.0,85,0.00,,,2.19,281.000000,,2013-04-29 15:31:00,
2013-04-29 11:53:00,65.0,60.0,-100.00,SSE,157,0.0,3.0,85,0.00,,,2.19,281.000000,,2013-04-29 15:53:00,
2013-04-29 12:03:00,65.0,60.0,-100.00,SSE,157,0.0,3.0,85,0.00,,,2.19,281.000000,,2013-04-29 16:03:00,
2013-04-29 12:13:00,65.0,60.0,-100.00,SSE,157,0.0,3.0,85,0.00,,,2.19,281.000000,,2013-04-29 16:13:00,
2013-04-29 12:23:00,65.0,60.0,-100.00,SSE,157,0.0,3.0,85,0.00,,,2.19,281.000000,,2013-04-29 16:23:00,
2013-04-29 12:31:00,67.0,61.0,-100.00,WSW,258,2.0,5.0,81,0.00,,,1.96,417.000000,,2013-04-29 16:31:00,
2013-04-29 12:53:00,67.0,61.0,-100.00,WSW,258,2.0,5.0,81,0.00,,,1.96,417.000000,,2013-04-29 16:53:00,
2013-04-29 13:02:00,67.0,61.0,-100.00,WSW,258,2.0,5.0,81,0.00,,,1.96,417.000000,,2013-04-29 17:02:00,
2013-04-29 13:12:00,67.0,61.0,-100.00,WSW,258,2.0,5.0,81,0.00,,,1.96,417.000000,,2013-04-29 17:12:00,
2013-04-29 13:22:00,67.0,61.0,-100.00,WSW,258,2.0,5.0,81,0.00,,,1.96,417.000000,,2013-04-29 17:22:00,
2013-04-29 13:31:00,68.0,61.0,-100.00,SW,232,2.0,5.0,79,0.00,,,-99.99,521.000000,,2013-04-29 17:31:00,
2013-04-29 13:52:00,68.0,61.0,-100.00,SW,232,2.0,5.0,79,0.00,,,-99.99,521.000000,,2013-04-29 17:52:00,
2013-04-29 14:01:00,68.0,61.0,-100.00,SW,232,2.0,5.0,79,0.00,,,-99.99,521.000000,,2013-04-29 18:01:00,
2013-04-29 14:13:00,68.0,61.0,-100.00,SW,232,2.0,5.0,79,0.00,,,-99.99,521.000000,,2013-04-29 18:13:00,
2013-04-29 14:22:00,68.0,61.0,-100.00,SW,232,2.0,5.0,79,0.00,,,-99.99,521.000000,,2013-04-29 18:22:00,
2013-04-29 14:31:00,71.0,61.0,-100.00,SW,224,2.0,6.0,71,0.00,,,1.22,592.000000,,2013-04-29 18:31:00,
2013-04-29 14:52:00,71.0,61.0,-100.00,SW,224,2.0,6.0,71,0.00,,,1.22,592.000000,,2013-04-29 18:52:00,
2013-04-29 15:01:00,71.0,61.0,-100.00,SW,224,2.0,6.0,71,0.00,,,1.22,592.000000,,2013-04-29 19:01:00,
2013-04-29 15:12:00,71.0,61.0,-100.00,SW,224,2.0,6.0,71,0.00,,,1.22,592.000000,,2013-04-29 19:12:00,
2013-04-29 15:22:00,71.0,61.0,-100.00,SW,224,2.0,6.0,71,0.00,,,1.22,592.000000,,2013-04-29 19:22:00,
2013-04-29 15:31:00,70.0,59.0,-100.00,West,270,3.0,5.0,67,0.00,,,0.97,495.000000,,2013-04-29 19:31:00,
2013-04-29 15:52:00,70.0,59.0,-100.00,West,270,3.0,5.0,67,0.00,,,0.97,495.000000,,2013-04-29 19:52:00,
2013-04-29 16:02:00,70.0,59.0,-100.00,West,270,3.0,5.0,67,0.00,,,0.97,495.000000,,2013-04-29 20:02:00,
2013-04-29 16:12:00,70.0,59.0,-100.00,West,270,3.0,5.0,67,0.00,,,0.97,495.000000,,2013-04-29 20:12:00,
2013-04-29 16:22:00,70.0,59.0,-100.00,West,270,3.0,5.0,67,0.00,,,0.97,495.000000,,2013-04-29 20:22:00,
2013-04-29 16:31:00,75.0,62.0,-100.00,WNW,285,2.0,5.0,65,0.00,,,0.70,619.000000,,2013-04-29 20:31:00,
2013-04-29 16:52:00,75.0,62.0,-100.00,WNW,285,2.0,5.0,65,0.00,,,0.70,619.000000,,2013-04-29 20:52:00,
2013-04-29 17:02:00,75.0,62.0,-100.00,WNW,285,2.0,5.0,65,0.00,,,0.70,619.000000,,2013-04-29 21:02:00,
2013-04-29 17:11:00,75.0,62.0,-100.00,WNW,285,2.0,5.0,65,0.00,,,0.70,619.000000,,2013-04-29 21:11:00,
2013-04-29 17:22:00,75.0,62.0,-100.00,WNW,285,2.0,5.0,65,0.00,,,0.70,619.000000,,2013-04-29 21:22:00,
2013-04-29 17:31:00,75.0,62.0,-100.00,South,171,1.0,7.0,65,0.00,,,0.33,521.000000,,2013-04-29 21:31:00,
2013-04-29 17:53:00,75.0,62.0,-100.00,South,171,1.0,7.0,65,0.00,,,0.33,521.000000,,2013-04-29 21:53:00,
2013-04-29 18:02:00,75.0,62.0,-100.00,South,171,1.0,7.0,65,0.00,,,0.33,521.000000,,2013-04-29 22:02:00,
2013-04-29 18:13:00,75.0,62.0,-100.00,South,171,1.0,7.0,65,0.00,,,0.33,521.000000,,2013-04-29 22:13:00,
2013-04-29 18:23:00,75.0,62.0,-100.00,South,171,1.0,7.0,65,0.00,,,0.33,521.000000,,2013-04-29 22:23:00,
2013-04-29 18:31:00,75.0,60.0,-100.00,SW,231,2.0,5.0,59,0.00,,,0.27,437.000000,,2013-04-29 22:31:00,
2013-04-29 18:53:00,75.0,60.0,-100.00,SW,231,2.0,5.0,59,0.00,,,0.27,437.000000,,2013-04-29 22:53:00,
2013-04-29 19:02:00,75.0,60.0,-100.00,SW,231,2.0,5.0,59,0.00,,,0.27,437.000000,,2013-04-29 23:02:00,
2013-04-29 19:12:00,75.0,60.0,-100.00,SW,231,2.0,5.0,59,0.00,,,0.27,437.000000,,2013-04-29 23:12:00,
2013-04-29 19:22:00,75.0,60.0,-100.00,SW,231,2.0,5.0,59,0.00,,,0.27,437.000000,,2013-04-29 23:22:00,
2013-04-29 19:31:00,69.0,60.0,-100.00,SE,138,0.0,2.0,74,0.00,,,0.20,153.000000,,2013-04-29 23:31:00,
2013-04-29 19:53:00,69.0,60.0,-100.00,SE,138,0.0,2.0,74,0.00,,,0.20,153.000000,,2013-04-29 23:53:00,
2013-04-29 20:01:00,69.0,60.0,-100.00,SE,138,0.0,2.0,74,0.00,,,0.20,153.000000,,2013-04-30 00:01:00,
2013-04-29 20:11:00,69.0,60.0,-100.00,SE,138,0.0,2.0,74,0.00,,,0.20,153.000000,,2013-04-30 00:11:00,
2013-04-29 20:22:00,69.0,60.0,-100.00,SE,138,0.0,2.0,74,0.00,,,0.20,153.000000,,2013-04-30 00:22:00,
2013-04-29 20:31:00,63.0,61.0,-100.00,ESE,115,0.0,0.0,94,0.00,,,0.15,12.000000,,2013-04-30 00:31:00,
2013-04-29 21:02:00,63.0,61.0,-100.00,ESE,115,0.0,0.0,94,0.00,,,0.15,12.000000,,2013-04-30 01:02:00,
2013-04-29 21:11:00,63.0,61.0,-100.00,ESE,115,0.0,0.0,94,0.00,,,0.15,12.000000,,2013-04-30 01:11:00,
2013-04-29 21:22:00,63.0,61.0,-100.00,ESE,115,0.0,0.0,94,0.00,,,0.15,12.000000,,2013-04-30 01:22:00,
2013-04-29 22:31:00,60.0,60.0,-100.00,SE,134,0.0,0.0,99,-99.99,,,0.13,0.000000,,2013-04-30 02:31:00,
2013-04-29 23:01:00,60.0,60.0,-100.00,SE,134,0.0,0.0,99,-99.99,,,0.13,0.000000,,2013-04-30 03:01:00,
2013-04-29 23:11:00,60.0,60.0,-100.00,SE,134,0.0,0.0,99,-99.99,,,0.13,0.000000,,2013-04-30 03:11:00,
2013-04-29 23:21:00,60.0,60.0,-100.00,SE,134,0.0,0.0,99,-99.99,,,0.13,0.000000,,2013-04-30 03:21:00,